4OMNE LGAV-LGAV
Flight info
| Callsign | 4OMNE |
|---|---|
| Flight time | 0h 27m |
| Altitude | 1500 |
| Route | ATHENS |
| Aircraft | DA40/L-SDFGRY/S |
Departure
| Time | 2026-05-07 16:01 |
|---|---|
| Airport | Athens Eleftherios Venizelos International Airport (LGAV) |
Arrival
| Time | 2026-05-07 16:28 |
|---|---|
| Airport | Athens Eleftherios Venizelos International Airport (LGAV) |
| Time | Latitude | Longitude | Altitude | Speed | Heading |
|---|---|---|---|---|---|
| 2026-05-07 15:39 | 37.94867 | 23.96152 | 264 ft | 0 kts | 48° |
| 2026-05-07 15:51 | 37.94868 | 23.96153 | 264 ft | 3 kts | 48° |
| 2026-05-07 15:51 | 37.94861 | 23.96152 | 264 ft | 0 kts | 212° |
| 2026-05-07 15:55 | 37.94840 | 23.96141 | 264 ft | 6 kts | 195° |
| 2026-05-07 15:56 | 37.94782 | 23.96134 | 264 ft | 10 kts | 180° |
| 2026-05-07 15:56 | 37.94701 | 23.96131 | 265 ft | 13 kts | 193° |
| 2026-05-07 15:56 | 37.94642 | 23.96092 | 265 ft | 8 kts | 193° |
| 2026-05-07 15:56 | 37.94595 | 23.96127 | 265 ft | 9 kts | 105° |
| 2026-05-07 15:57 | 37.94624 | 23.96203 | 264 ft | 15 kts | 29° |
| 2026-05-07 15:57 | 37.94713 | 23.96288 | 263 ft | 15 kts | 34° |
| 2026-05-07 15:57 | 37.94754 | 23.96333 | 263 ft | 4 kts | 70° |
| 2026-05-07 15:57 | 37.94751 | 23.96347 | 263 ft | 0 kts | 133° |
| 2026-05-07 15:59 | 37.94736 | 23.96351 | 263 ft | 7 kts | 181° |
| 2026-05-07 15:59 | 37.94640 | 23.96328 | 263 ft | 18 kts | 187° |
| 2026-05-07 15:59 | 37.94503 | 23.96303 | 265 ft | 23 kts | 193° |
| 2026-05-07 16:00 | 37.94373 | 23.96242 | 265 ft | 17 kts | 212° |
| 2026-05-07 16:00 | 37.94161 | 23.96044 | 270 ft | 61 kts | 216° |
| 2026-05-07 16:00 | 37.93796 | 23.95697 | 443 ft | 72 kts | 215° |
| 2026-05-07 16:00 | 37.93377 | 23.95334 | 737 ft | 70 kts | 215° |
| 2026-05-07 16:01 | 37.92977 | 23.94945 | 876 ft | 72 kts | 225° |
| 2026-05-07 16:01 | 37.92645 | 23.94462 | 1092 ft | 76 kts | 218° |
| 2026-05-07 16:01 | 37.92672 | 23.93820 | 1207 ft | 92 kts | 301° |
| 2026-05-07 16:01 | 37.93212 | 23.93308 | 1332 ft | 92 kts | 308° |
| 2026-05-07 16:02 | 37.93651 | 23.92750 | 1561 ft | 86 kts | 307° |
| 2026-05-07 16:02 | 37.94068 | 23.92187 | 1757 ft | 89 kts | 309° |
| 2026-05-07 16:02 | 37.94490 | 23.91671 | 2028 ft | 78 kts | 306° |
| 2026-05-07 16:02 | 37.94850 | 23.91197 | 2229 ft | 77 kts | 303° |
| 2026-05-07 16:03 | 37.95224 | 23.90699 | 2412 ft | 76 kts | 301° |
| 2026-05-07 16:03 | 37.95590 | 23.90149 | 2500 ft | 89 kts | 299° |
| 2026-05-07 16:03 | 37.96041 | 23.89474 | 2499 ft | 109 kts | 306° |
| 2026-05-07 16:03 | 37.96555 | 23.88722 | 2500 ft | 118 kts | 307° |
| 2026-05-07 16:04 | 37.97146 | 23.87953 | 2485 ft | 124 kts | 310° |
| 2026-05-07 16:04 | 37.97780 | 23.87191 | 2477 ft | 126 kts | 314° |
| 2026-05-07 16:04 | 37.98441 | 23.86475 | 2479 ft | 125 kts | 314° |
| 2026-05-07 16:04 | 37.99109 | 23.85770 | 2478 ft | 124 kts | 316° |
| 2026-05-07 16:05 | 37.99769 | 23.85059 | 2476 ft | 124 kts | 315° |
| 2026-05-07 16:05 | 38.00432 | 23.84358 | 2461 ft | 122 kts | 315° |
| 2026-05-07 16:05 | 38.01079 | 23.83706 | 2489 ft | 118 kts | 315° |
| 2026-05-07 16:05 | 38.01744 | 23.83019 | 2479 ft | 127 kts | 315° |
| 2026-05-07 16:06 | 38.02433 | 23.82283 | 2478 ft | 131 kts | 316° |
| 2026-05-07 16:06 | 38.03129 | 23.81513 | 2475 ft | 134 kts | 315° |
| 2026-05-07 16:06 | 38.03798 | 23.80689 | 2474 ft | 134 kts | 307° |
| 2026-05-07 16:06 | 38.04394 | 23.79786 | 2467 ft | 132 kts | 299° |
| 2026-05-07 16:07 | 38.04613 | 23.78706 | 2471 ft | 128 kts | 271° |
| 2026-05-07 16:07 | 38.04657 | 23.77583 | 2467 ft | 127 kts | 265° |
| 2026-05-07 16:07 | 38.04334 | 23.76573 | 2471 ft | 124 kts | 234° |
| 2026-05-07 16:07 | 38.03831 | 23.75686 | 2468 ft | 123 kts | 232° |
| 2026-05-07 16:08 | 38.03332 | 23.74805 | 2477 ft | 124 kts | 231° |
| 2026-05-07 16:08 | 38.02823 | 23.73893 | 2463 ft | 127 kts | 231° |
| 2026-05-07 16:08 | 38.02101 | 23.73355 | 2466 ft | 122 kts | 186° |
| 2026-05-07 16:08 | 38.01540 | 23.73337 | 2470 ft | 122 kts | 178° |
| 2026-05-07 16:09 | 38.00718 | 23.73093 | 2474 ft | 125 kts | 206° |
| 2026-05-07 16:09 | 37.99963 | 23.72534 | 2466 ft | 126 kts | 209° |
| 2026-05-07 16:09 | 37.99208 | 23.71971 | 2464 ft | 126 kts | 209° |
| 2026-05-07 16:09 | 37.98451 | 23.71410 | 2464 ft | 127 kts | 209° |
| 2026-05-07 16:10 | 37.97693 | 23.70840 | 2461 ft | 127 kts | 209° |
| 2026-05-07 16:10 | 37.96939 | 23.70256 | 2464 ft | 128 kts | 209° |
| 2026-05-07 16:10 | 37.96173 | 23.69676 | 2482 ft | 128 kts | 209° |
| 2026-05-07 16:10 | 37.95411 | 23.69092 | 2486 ft | 128 kts | 209° |
| 2026-05-07 16:11 | 37.94645 | 23.68492 | 2488 ft | 129 kts | 210° |
| 2026-05-07 16:11 | 37.93882 | 23.67890 | 2487 ft | 130 kts | 209° |
| 2026-05-07 16:11 | 37.93038 | 23.67626 | 2481 ft | 127 kts | 170° |
| 2026-05-07 16:11 | 37.92318 | 23.68213 | 2481 ft | 126 kts | 125° |
| 2026-05-07 16:12 | 37.91979 | 23.69246 | 2478 ft | 130 kts | 98° |
| 2026-05-07 16:12 | 37.92236 | 23.70332 | 2485 ft | 134 kts | 53° |
| 2026-05-07 16:12 | 37.93042 | 23.70903 | 2489 ft | 138 kts | 9° |
| 2026-05-07 16:12 | 37.93979 | 23.70668 | 2488 ft | 139 kts | 337° |
| 2026-05-07 16:13 | 37.94861 | 23.70146 | 2489 ft | 140 kts | 334° |
| 2026-05-07 16:13 | 37.95736 | 23.69602 | 2482 ft | 139 kts | 334° |
| 2026-05-07 16:13 | 37.96603 | 23.69057 | 2483 ft | 138 kts | 334° |
| 2026-05-07 16:13 | 37.97517 | 23.68700 | 2469 ft | 138 kts | 348° |
| 2026-05-07 16:14 | 37.98466 | 23.68442 | 2465 ft | 140 kts | 349° |
| 2026-05-07 16:14 | 37.99422 | 23.68191 | 2467 ft | 141 kts | 349° |
| 2026-05-07 16:14 | 38.00374 | 23.68257 | 2469 ft | 140 kts | 14° |
| 2026-05-07 16:14 | 38.01324 | 23.68549 | 2465 ft | 140 kts | 16° |
| 2026-05-07 16:15 | 38.02264 | 23.68871 | 2461 ft | 140 kts | 24° |
| 2026-05-07 16:15 | 38.03099 | 23.69484 | 2465 ft | 138 kts | 35° |
| 2026-05-07 16:15 | 38.03838 | 23.70251 | 2467 ft | 138 kts | 45° |
| 2026-05-07 16:15 | 38.04532 | 23.71098 | 2464 ft | 138 kts | 45° |
| 2026-05-07 16:16 | 38.05225 | 23.71940 | 2464 ft | 136 kts | 46° |
| 2026-05-07 16:16 | 38.05777 | 23.72900 | 2461 ft | 136 kts | 77° |
| 2026-05-07 16:16 | 38.05713 | 23.74050 | 2473 ft | 131 kts | 109° |
| 2026-05-07 16:16 | 38.05405 | 23.75141 | 2474 ft | 132 kts | 115° |
| 2026-05-07 16:17 | 38.05101 | 23.76252 | 2473 ft | 137 kts | 112° |
| 2026-05-07 16:17 | 38.04921 | 23.77434 | 2465 ft | 141 kts | 86° |
| 2026-05-07 16:17 | 38.05393 | 23.78532 | 2466 ft | 146 kts | 41° |
| 2026-05-07 16:17 | 38.06328 | 23.78970 | 2464 ft | 145 kts | 358° |
| 2026-05-07 16:18 | 38.07264 | 23.78615 | 2460 ft | 138 kts | 321° |
| 2026-05-07 16:18 | 38.07760 | 23.77669 | 2474 ft | 128 kts | 277° |
| 2026-05-07 16:18 | 38.07582 | 23.76606 | 2469 ft | 125 kts | 233° |
| 2026-05-07 16:18 | 38.06931 | 23.75875 | 2478 ft | 125 kts | 216° |
| 2026-05-07 16:19 | 38.06101 | 23.75605 | 2465 ft | 128 kts | 181° |
| 2026-05-07 16:19 | 38.05295 | 23.76051 | 2466 ft | 133 kts | 139° |
| 2026-05-07 16:19 | 38.04799 | 23.77057 | 2466 ft | 136 kts | 119° |
| 2026-05-07 16:19 | 38.04404 | 23.78148 | 2469 ft | 137 kts | 118° |
| 2026-05-07 16:20 | 38.04012 | 23.79259 | 2470 ft | 139 kts | 118° |
| 2026-05-07 16:20 | 38.03619 | 23.80380 | 2467 ft | 137 kts | 117° |
| 2026-05-07 16:20 | 38.03234 | 23.81471 | 2470 ft | 135 kts | 118° |
| 2026-05-07 16:20 | 38.02854 | 23.82557 | 2466 ft | 133 kts | 120° |
| 2026-05-07 16:21 | 38.02421 | 23.83576 | 2471 ft | 130 kts | 126° |
| 2026-05-07 16:21 | 38.01969 | 23.84559 | 2476 ft | 129 kts | 124° |
| 2026-05-07 16:21 | 38.01409 | 23.85437 | 2477 ft | 128 kts | 137° |
| 2026-05-07 16:21 | 38.00799 | 23.86263 | 2476 ft | 129 kts | 133° |
| 2026-05-07 16:22 | 38.00270 | 23.87179 | 2474 ft | 128 kts | 128° |
| 2026-05-07 16:22 | 37.99685 | 23.87986 | 2483 ft | 123 kts | 145° |
| 2026-05-07 16:22 | 37.98993 | 23.88666 | 2362 ft | 132 kts | 149° |
| 2026-05-07 16:22 | 37.98124 | 23.89238 | 2085 ft | 143 kts | 156° |
| 2026-05-07 16:23 | 37.97310 | 23.89887 | 2037 ft | 137 kts | 149° |
| 2026-05-07 16:23 | 37.96554 | 23.90650 | 1811 ft | 145 kts | 140° |
| 2026-05-07 16:23 | 37.95861 | 23.91591 | 1619 ft | 147 kts | 135° |
| 2026-05-07 16:23 | 37.95208 | 23.92585 | 1393 ft | 150 kts | 133° |
| 2026-05-07 16:24 | 37.94568 | 23.93623 | 1229 ft | 146 kts | 131° |
| 2026-05-07 16:24 | 37.94012 | 23.94601 | 1274 ft | 131 kts | 129° |
| 2026-05-07 16:24 | 37.93485 | 23.95505 | 1298 ft | 126 kts | 131° |
| 2026-05-07 16:24 | 37.93037 | 23.96458 | 1293 ft | 131 kts | 104° |
| 2026-05-07 16:25 | 37.93388 | 23.97503 | 1296 ft | 140 kts | 43° |
| 2026-05-07 16:25 | 37.94058 | 23.98373 | 1329 ft | 133 kts | 70° |
| 2026-05-07 16:25 | 37.94003 | 23.99452 | 1360 ft | 123 kts | 127° |
| 2026-05-07 16:25 | 37.93362 | 23.99419 | 1312 ft | 120 kts | 250° |
| 2026-05-07 16:26 | 37.93909 | 23.98791 | 1269 ft | 136 kts | 21° |
| 2026-05-07 16:26 | 37.94718 | 23.99415 | 1270 ft | 133 kts | 33° |
| 2026-05-07 16:26 | 37.95497 | 24.00002 | 1300 ft | 124 kts | 31° |
| 2026-05-07 16:26 | 37.96220 | 23.99947 | 1216 ft | 100 kts | 313° |
| 2026-05-07 16:27 | 37.96555 | 23.99282 | 1092 ft | 79 kts | 274° |
| 2026-05-07 16:27 | 37.96519 | 23.98631 | 834 ft | 72 kts | 240° |
| 2026-05-07 16:27 | 37.96273 | 23.98118 | 668 ft | 64 kts | 229° |
| 2026-05-07 16:27 | 37.95930 | 23.97731 | 535 ft | 68 kts | 213° |
| 2026-05-07 16:28 | 37.95562 | 23.97378 | 450 ft | 66 kts | 214° |
| 2026-05-07 16:28 | 37.95192 | 23.97021 | 377 ft | 69 kts | 216° |
| 2026-05-07 16:28 | 37.94800 | 23.96650 | 275 ft | 68 kts | 216° |
| 2026-05-07 16:28 | 37.94499 | 23.96362 | 264 ft | 40 kts | 217° |
| 2026-05-07 16:29 | 37.94392 | 23.96264 | 265 ft | 16 kts | 217° |
| 2026-05-07 16:29 | 37.94289 | 23.96165 | 267 ft | 21 kts | 218° |
| 2026-05-07 16:29 | 37.94193 | 23.96043 | 269 ft | 14 kts | 285° |
| 2026-05-07 16:29 | 37.94250 | 23.96004 | 269 ft | 12 kts | 15° |
| 2026-05-07 16:30 | 37.94305 | 23.96019 | 269 ft | 0 kts | 4° |
| 2026-05-07 16:31 | 37.94321 | 23.96004 | 268 ft | 8 kts | 303° |
| 2026-05-07 16:31 | 37.94349 | 23.95905 | 268 ft | 12 kts | 292° |
| 2026-05-07 16:31 | 37.94415 | 23.95861 | 268 ft | 14 kts | 25° |
| 2026-05-07 16:31 | 37.94521 | 23.95964 | 267 ft | 21 kts | 38° |
| 2026-05-07 16:32 | 37.94634 | 23.96067 | 265 ft | 20 kts | 35° |
| 2026-05-07 16:32 | 37.94749 | 23.96183 | 264 ft | 21 kts | 36° |
| 2026-05-07 16:32 | 37.94858 | 23.96284 | 263 ft | 18 kts | 37° |
| 2026-05-07 16:32 | 37.94955 | 23.96364 | 262 ft | 14 kts | 2° |
| 2026-05-07 16:33 | 37.95013 | 23.96329 | 262 ft | 0 kts | 306° |